sensor_id;sensor_type;location;lat;lon;timestamp;P1;durP1;ratioP1;P2;durP2;ratioP2
85121;SDS011;75480;52.260;20.916;2024-03-23T00:55:07;23.88;;;13.65;;
85121;SDS011;75480;52.260;20.916;2024-03-23T00:56:38;26.40;;;15.00;;
85121;SDS011;75480;52.260;20.916;2024-03-23T00:58:08;23.05;;;13.85;;
85121;SDS011;75480;52.260;20.916;2024-03-23T00:59:39;24.17;;;14.57;;
85121;SDS011;75480;52.260;20.916;2024-03-23T01:01:10;25.13;;;15.35;;
85121;SDS011;75480;52.260;20.916;2024-03-23T01:02:40;26.27;;;14.43;;
85121;SDS011;75480;52.260;20.916;2024-03-23T01:04:11;23.15;;;13.90;;
85121;SDS011;75480;52.260;20.916;2024-03-23T01:05:42;24.88;;;14.63;;
85121;SDS011;75480;52.260;20.916;2024-03-23T01:07:12;24.42;;;14.40;;
85121;SDS011;75480;52.260;20.916;2024-03-23T01:08:43;25.73;;;15.05;;
85121;SDS011;75480;52.260;20.916;2024-03-23T01:10:13;25.02;;;14.25;;
85121;SDS011;75480;52.260;20.916;2024-03-23T01:11:44;27.88;;;14.98;;
85121;SDS011;75480;52.260;20.916;2024-03-23T01:13:15;25.55;;;13.98;;
85121;SDS011;75480;52.260;20.916;2024-03-23T01:14:45;27.58;;;14.35;;
85121;SDS011;75480;52.260;20.916;2024-03-23T01:16:16;26.92;;;14.98;;
85121;SDS011;75480;52.260;20.916;2024-03-23T01:17:47;21.55;;;13.38;;
85121;SDS011;75480;52.260;20.916;2024-03-23T01:19:17;25.02;;;14.32;;
85121;SDS011;75480;52.260;20.916;2024-03-23T01:20:48;27.98;;;14.32;;
85121;SDS011;75480;52.260;20.916;2024-03-23T01:22:18;31.38;;;15.85;;
85121;SDS011;75480;52.260;20.916;2024-03-23T01:23:49;24.17;;;14.05;;
85121;SDS011;75480;52.260;20.916;2024-03-23T01:25:20;24.48;;;14.10;;
85121;SDS011;75480;52.260;20.916;2024-03-23T01:26:50;28.48;;;14.95;;
85121;SDS011;75480;52.260;20.916;2024-03-23T01:28:21;28.40;;;15.25;;
85121;SDS011;75480;52.260;20.916;2024-03-23T01:29:52;25.60;;;14.63;;
85121;SDS011;75480;52.260;20.916;2024-03-23T01:31:25;22.35;;;12.98;;
85121;SDS011;75480;52.260;20.916;2024-03-23T01:32:56;26.38;;;14.70;;
85121;SDS011;75480;52.260;20.916;2024-03-23T01:34:26;28.17;;;14.82;;
85121;SDS011;75480;52.260;20.916;2024-03-23T01:37:28;22.80;;;14.02;;
85121;SDS011;75480;52.260;20.916;2024-03-23T01:38:59;23.70;;;14.07;;
85121;SDS011;75480;52.260;20.916;2024-03-23T01:40:30;24.77;;;14.52;;
85121;SDS011;75480;52.260;20.916;2024-03-23T01:42:02;27.10;;;14.55;;
85121;SDS011;75480;52.260;20.916;2024-03-23T01:43:33;26.23;;;14.93;;
85121;SDS011;75480;52.260;20.916;2024-03-23T01:45:05;26.60;;;14.35;;
85121;SDS011;75480;52.260;20.916;2024-03-23T01:46:38;26.00;;;15.35;;
85121;SDS011;75480;52.260;20.916;2024-03-23T01:48:09;25.45;;;14.93;;
85121;SDS011;75480;52.260;20.916;2024-03-23T01:49:42;28.13;;;16.17;;
85121;SDS011;75480;52.260;20.916;2024-03-23T01:51:13;28.48;;;15.40;;
85121;SDS011;75480;52.260;20.916;2024-03-23T01:52:44;29.10;;;15.73;;
85121;SDS011;75480;52.260;20.916;2024-03-23T01:54:15;27.65;;;15.25;;
85121;SDS011;75480;52.260;20.916;2024-03-23T01:55:46;25.00;;;15.10;;
85121;SDS011;75480;52.260;20.916;2024-03-23T01:57:17;28.08;;;15.95;;
85121;SDS011;75480;52.260;20.916;2024-03-23T01:58:48;29.10;;;15.75;;
85121;SDS011;75480;52.260;20.916;2024-03-23T02:00:19;29.98;;;16.23;;
85121;SDS011;75480;52.260;20.916;2024-03-23T02:01:49;28.25;;;14.70;;
85121;SDS011;75480;52.260;20.916;2024-03-23T02:03:27;27.13;;;14.82;;
85121;SDS011;75480;52.260;20.916;2024-03-23T02:04:58;29.50;;;14.95;;
85121;SDS011;75480;52.260;20.916;2024-03-23T02:06:29;28.40;;;15.75;;
85121;SDS011;75480;52.260;20.916;2024-03-23T02:07:59;27.10;;;15.32;;
85121;SDS011;75480;52.260;20.916;2024-03-23T02:09:30;27.23;;;14.95;;
85121;SDS011;75480;52.260;20.916;2024-03-23T02:11:02;26.98;;;14.82;;
85121;SDS011;75480;52.260;20.916;2024-03-23T02:12:33;29.05;;;15.98;;
85121;SDS011;75480;52.260;20.916;2024-03-23T02:14:04;30.80;;;16.73;;
85121;SDS011;75480;52.260;20.916;2024-03-23T02:15:35;25.70;;;15.10;;
85121;SDS011;75480;52.260;20.916;2024-03-23T02:17:06;29.00;;;16.45;;
85121;SDS011;75480;52.260;20.916;2024-03-23T02:18:36;29.15;;;16.15;;
85121;SDS011;75480;52.260;20.916;2024-03-23T02:20:07;28.65;;;15.88;;
85121;SDS011;75480;52.260;20.916;2024-03-23T02:21:38;28.98;;;15.98;;
85121;SDS011;75480;52.260;20.916;2024-03-23T02:23:15;28.85;;;16.60;;
85121;SDS011;75480;52.260;20.916;2024-03-23T02:24:48;24.70;;;14.60;;
85121;SDS011;75480;52.260;20.916;2024-03-23T02:26:18;30.33;;;15.20;;
85121;SDS011;75480;52.260;20.916;2024-03-23T02:27:49;29.63;;;15.98;;
85121;SDS011;75480;52.260;20.916;2024-03-23T02:29:19;29.48;;;17.33;;
85121;SDS011;75480;52.260;20.916;2024-03-23T02:30:51;31.00;;;17.05;;
85121;SDS011;75480;52.260;20.916;2024-03-23T02:32:22;28.40;;;15.70;;
85121;SDS011;75480;52.260;20.916;2024-03-23T02:33:53;31.20;;;17.13;;
85121;SDS011;75480;52.260;20.916;2024-03-23T02:35:24;27.02;;;16.02;;
85121;SDS011;75480;52.260;20.916;2024-03-23T02:36:54;27.40;;;16.08;;
85121;SDS011;75480;52.260;20.916;2024-03-23T02:38:25;25.20;;;15.43;;
85121;SDS011;75480;52.260;20.916;2024-03-23T02:39:56;27.38;;;16.38;;
85121;SDS011;75480;52.260;20.916;2024-03-23T02:41:26;29.98;;;15.60;;
85121;SDS011;75480;52.260;20.916;2024-03-23T02:42:57;31.17;;;16.30;;
85121;SDS011;75480;52.260;20.916;2024-03-23T02:44:27;30.30;;;15.50;;
85121;SDS011;75480;52.260;20.916;2024-03-23T02:45:58;28.10;;;16.77;;
85121;SDS011;75480;52.260;20.916;2024-03-23T02:47:29;28.77;;;16.58;;
85121;SDS011;75480;52.260;20.916;2024-03-23T02:48:59;27.25;;;15.25;;
85121;SDS011;75480;52.260;20.916;2024-03-23T02:50:31;27.63;;;16.52;;
85121;SDS011;75480;52.260;20.916;2024-03-23T02:52:01;27.50;;;14.73;;
85121;SDS011;75480;52.260;20.916;2024-03-23T02:53:32;30.70;;;16.27;;
85121;SDS011;75480;52.260;20.916;2024-03-23T02:55:03;30.33;;;15.60;;
85121;SDS011;75480;52.260;20.916;2024-03-23T02:56:34;30.73;;;15.85;;
85121;SDS011;75480;52.260;20.916;2024-03-23T02:58:05;27.80;;;15.85;;
85121;SDS011;75480;52.260;20.916;2024-03-23T02:59:35;30.60;;;16.73;;
85121;SDS011;75480;52.260;20.916;2024-03-23T03:01:06;28.52;;;16.38;;
85121;SDS011;75480;52.260;20.916;2024-03-23T03:02:37;29.83;;;17.55;;
85121;SDS011;75480;52.260;20.916;2024-03-23T03:04:07;30.08;;;17.63;;
85121;SDS011;75480;52.260;20.916;2024-03-23T03:05:38;30.15;;;15.93;;
85121;SDS011;75480;52.260;20.916;2024-03-23T03:07:09;27.55;;;15.55;;
85121;SDS011;75480;52.260;20.916;2024-03-23T03:08:39;30.42;;;16.15;;
85121;SDS011;75480;52.260;20.916;2024-03-23T03:10:10;26.75;;;15.13;;
85121;SDS011;75480;52.260;20.916;2024-03-23T03:11:41;30.33;;;18.10;;
85121;SDS011;75480;52.260;20.916;2024-03-23T03:13:12;27.10;;;16.73;;
85121;SDS011;75480;52.260;20.916;2024-03-23T03:14:42;26.92;;;15.60;;
85121;SDS011;75480;52.260;20.916;2024-03-23T03:16:13;27.38;;;16.10;;
85121;SDS011;75480;52.260;20.916;2024-03-23T03:17:44;28.95;;;15.98;;
85121;SDS011;75480;52.260;20.916;2024-03-23T03:19:15;29.50;;;16.13;;
85121;SDS011;75480;52.260;20.916;2024-03-23T03:20:47;29.23;;;16.25;;
85121;SDS011;75480;52.260;20.916;2024-03-23T03:22:17;25.67;;;14.50;;
85121;SDS011;75480;52.260;20.916;2024-03-23T03:23:47;30.60;;;16.95;;
85121;SDS011;75480;52.260;20.916;2024-03-23T03:25:20;29.58;;;15.25;;
85121;SDS011;75480;52.260;20.916;2024-03-23T03:26:51;28.98;;;16.13;;
85121;SDS011;75480;52.260;20.916;2024-03-23T03:28:22;26.48;;;15.48;;
85121;SDS011;75480;52.260;20.916;2024-03-23T03:29:52;28.65;;;16.02;;
85121;SDS011;75480;52.260;20.916;2024-03-23T03:31:23;26.98;;;15.13;;
85121;SDS011;75480;52.260;20.916;2024-03-23T03:32:54;30.48;;;16.52;;
85121;SDS011;75480;52.260;20.916;2024-03-23T03:34:25;31.00;;;16.65;;
85121;SDS011;75480;52.260;20.916;2024-03-23T03:35:55;28.48;;;14.93;;
85121;SDS011;75480;52.260;20.916;2024-03-23T03:37:26;27.48;;;15.57;;
85121;SDS011;75480;52.260;20.916;2024-03-23T03:38:57;25.85;;;15.00;;
85121;SDS011;75480;52.260;20.916;2024-03-23T03:40:27;26.60;;;14.98;;
85121;SDS011;75480;52.260;20.916;2024-03-23T03:41:58;25.98;;;14.07;;
85121;SDS011;75480;52.260;20.916;2024-03-23T03:43:31;26.48;;;15.02;;
85121;SDS011;75480;52.260;20.916;2024-03-23T03:45:01;26.77;;;15.55;;
85121;SDS011;75480;52.260;20.916;2024-03-23T03:46:34;27.30;;;15.80;;
85121;SDS011;75480;52.260;20.916;2024-03-23T03:48:05;26.10;;;15.73;;
85121;SDS011;75480;52.260;20.916;2024-03-23T03:49:36;29.35;;;16.00;;
85121;SDS011;75480;52.260;20.916;2024-03-23T03:51:06;27.58;;;16.10;;
85121;SDS011;75480;52.260;20.916;2024-03-23T03:52:37;25.83;;;15.52;;
85121;SDS011;75480;52.260;20.916;2024-03-23T03:54:08;25.73;;;15.15;;
85121;SDS011;75480;52.260;20.916;2024-03-23T03:55:39;26.67;;;14.23;;
85121;SDS011;75480;52.260;20.916;2024-03-23T03:57:09;26.00;;;15.40;;
85121;SDS011;75480;52.260;20.916;2024-03-23T03:58:40;26.95;;;14.27;;
85121;SDS011;75480;52.260;20.916;2024-03-23T04:00:11;27.23;;;15.00;;
85121;SDS011;75480;52.260;20.916;2024-03-23T04:01:42;27.70;;;15.05;;
85121;SDS011;75480;52.260;20.916;2024-03-23T04:03:13;23.42;;;13.73;;
85121;SDS011;75480;52.260;20.916;2024-03-23T04:04:44;28.17;;;15.27;;
85121;SDS011;75480;52.260;20.916;2024-03-23T04:06:18;27.40;;;14.95;;
85121;SDS011;75480;52.260;20.916;2024-03-23T04:07:49;28.80;;;15.20;;
85121;SDS011;75480;52.260;20.916;2024-03-23T04:09:19;27.20;;;15.20;;
85121;SDS011;75480;52.260;20.916;2024-03-23T04:10:50;26.85;;;15.32;;
85121;SDS011;75480;52.260;20.916;2024-03-23T04:12:21;26.85;;;14.68;;
85121;SDS011;75480;52.260;20.916;2024-03-23T04:13:51;26.92;;;14.93;;
85121;SDS011;75480;52.260;20.916;2024-03-23T04:15:22;24.30;;;14.40;;
85121;SDS011;75480;52.260;20.916;2024-03-23T04:16:53;26.10;;;15.63;;
85121;SDS011;75480;52.260;20.916;2024-03-23T04:18:23;24.70;;;14.35;;
85121;SDS011;75480;52.260;20.916;2024-03-23T04:19:55;25.50;;;15.70;;
85121;SDS011;75480;52.260;20.916;2024-03-23T04:21:26;25.75;;;15.05;;
85121;SDS011;75480;52.260;20.916;2024-03-23T04:22:56;26.27;;;15.80;;
85121;SDS011;75480;52.260;20.916;2024-03-23T04:24:27;25.45;;;15.43;;
85121;SDS011;75480;52.260;20.916;2024-03-23T04:26:02;28.88;;;15.55;;
85121;SDS011;75480;52.260;20.916;2024-03-23T04:27:34;24.80;;;14.95;;
85121;SDS011;75480;52.260;20.916;2024-03-23T04:29:05;24.30;;;14.00;;
85121;SDS011;75480;52.260;20.916;2024-03-23T04:30:35;25.67;;;15.27;;
85121;SDS011;75480;52.260;20.916;2024-03-23T04:32:07;25.42;;;15.25;;
85121;SDS011;75480;52.260;20.916;2024-03-23T04:33:37;27.38;;;14.75;;
85121;SDS011;75480;52.260;20.916;2024-03-23T04:35:08;25.30;;;14.57;;
85121;SDS011;75480;52.260;20.916;2024-03-23T04:36:41;24.92;;;14.15;;
85121;SDS011;75480;52.260;20.916;2024-03-23T04:38:12;25.67;;;14.40;;
85121;SDS011;75480;52.260;20.916;2024-03-23T04:39:43;24.17;;;13.70;;
85121;SDS011;75480;52.260;20.916;2024-03-23T04:41:13;25.70;;;14.90;;
85121;SDS011;75480;52.260;20.916;2024-03-23T04:42:44;24.10;;;13.88;;
85121;SDS011;75480;52.260;20.916;2024-03-23T04:44:15;25.65;;;15.48;;
85121;SDS011;75480;52.260;20.916;2024-03-23T04:45:45;26.45;;;15.40;;
85121;SDS011;75480;52.260;20.916;2024-03-23T04:47:16;26.88;;;15.77;;
85121;SDS011;75480;52.260;20.916;2024-03-23T04:48:47;26.17;;;16.05;;
85121;SDS011;75480;52.260;20.916;2024-03-23T04:50:17;29.70;;;16.50;;
85121;SDS011;75480;52.260;20.916;2024-03-23T04:51:49;27.63;;;15.63;;
85121;SDS011;75480;52.260;20.916;2024-03-23T04:53:19;29.98;;;15.75;;
85121;SDS011;75480;52.260;20.916;2024-03-23T04:54:50;27.25;;;15.55;;
85121;SDS011;75480;52.260;20.916;2024-03-23T04:56:20;27.90;;;16.25;;
85121;SDS011;75480;52.260;20.916;2024-03-23T04:57:51;28.00;;;15.55;;
85121;SDS011;75480;52.260;20.916;2024-03-23T04:59:21;25.50;;;15.20;;
85121;SDS011;75480;52.260;20.916;2024-03-23T05:00:53;25.35;;;14.85;;
85121;SDS011;75480;52.260;20.916;2024-03-23T05:02:25;28.13;;;16.00;;
85121;SDS011;75480;52.260;20.916;2024-03-23T05:03:56;27.52;;;16.50;;
85121;SDS011;75480;52.260;20.916;2024-03-23T05:05:27;28.48;;;16.50;;
85121;SDS011;75480;52.260;20.916;2024-03-23T05:06:58;28.42;;;16.42;;
85121;SDS011;75480;52.260;20.916;2024-03-23T05:08:28;23.52;;;14.43;;
85121;SDS011;75480;52.260;20.916;2024-03-23T05:09:59;28.50;;;16.02;;
85121;SDS011;75480;52.260;20.916;2024-03-23T05:11:30;25.42;;;15.70;;
85121;SDS011;75480;52.260;20.916;2024-03-23T05:13:00;28.55;;;16.60;;
85121;SDS011;75480;52.260;20.916;2024-03-23T05:14:32;30.60;;;16.98;;
85121;SDS011;75480;52.260;20.916;2024-03-23T05:16:02;28.05;;;15.85;;
85121;SDS011;75480;52.260;20.916;2024-03-23T05:17:33;31.40;;;16.67;;
85121;SDS011;75480;52.260;20.916;2024-03-23T05:19:05;31.75;;;17.08;;
85121;SDS011;75480;52.260;20.916;2024-03-23T05:20:35;29.88;;;16.52;;
85121;SDS011;75480;52.260;20.916;2024-03-23T05:22:06;27.73;;;16.40;;
85121;SDS011;75480;52.260;20.916;2024-03-23T05:23:37;30.95;;;16.88;;
85121;SDS011;75480;52.260;20.916;2024-03-23T05:25:08;32.33;;;18.13;;
85121;SDS011;75480;52.260;20.916;2024-03-23T05:26:40;32.40;;;18.55;;
85121;SDS011;75480;52.260;20.916;2024-03-23T05:28:10;30.25;;;17.50;;
85121;SDS011;75480;52.260;20.916;2024-03-23T05:29:41;29.30;;;17.50;;
85121;SDS011;75480;52.260;20.916;2024-03-23T05:31:12;27.85;;;16.85;;
85121;SDS011;75480;52.260;20.916;2024-03-23T05:32:43;29.70;;;18.27;;
85121;SDS011;75480;52.260;20.916;2024-03-23T05:34:14;31.85;;;17.88;;
85121;SDS011;75480;52.260;20.916;2024-03-23T05:35:44;27.77;;;17.25;;
85121;SDS011;75480;52.260;20.916;2024-03-23T05:37:15;29.77;;;18.30;;
85121;SDS011;75480;52.260;20.916;2024-03-23T05:38:46;33.75;;;19.83;;
85121;SDS011;75480;52.260;20.916;2024-03-23T05:40:17;33.72;;;19.80;;
85121;SDS011;75480;52.260;20.916;2024-03-23T05:41:48;33.47;;;18.73;;
85121;SDS011;75480;52.260;20.916;2024-03-23T05:43:19;33.20;;;18.02;;
85121;SDS011;75480;52.260;20.916;2024-03-23T05:44:49;33.78;;;18.50;;
85121;SDS011;75480;52.260;20.916;2024-03-23T05:46:20;33.13;;;18.13;;
85121;SDS011;75480;52.260;20.916;2024-03-23T05:47:51;31.60;;;18.08;;
85121;SDS011;75480;52.260;20.916;2024-03-23T05:49:21;32.08;;;18.30;;
85121;SDS011;75480;52.260;20.916;2024-03-23T05:50:52;34.22;;;18.48;;
85121;SDS011;75480;52.260;20.916;2024-03-23T05:52:23;35.83;;;19.58;;
85121;SDS011;75480;52.260;20.916;2024-03-23T05:53:55;32.33;;;18.77;;
85121;SDS011;75480;52.260;20.916;2024-03-23T05:55:26;33.20;;;19.02;;
85121;SDS011;75480;52.260;20.916;2024-03-23T05:56:57;33.33;;;18.42;;
85121;SDS011;75480;52.260;20.916;2024-03-23T05:58:28;34.65;;;19.05;;
85121;SDS011;75480;52.260;20.916;2024-03-23T05:59:58;33.45;;;18.85;;
85121;SDS011;75480;52.260;20.916;2024-03-23T06:01:29;33.90;;;19.80;;
85121;SDS011;75480;52.260;20.916;2024-03-23T06:03:02;32.88;;;19.17;;
85121;SDS011;75480;52.260;20.916;2024-03-23T06:04:33;33.35;;;18.77;;
85121;SDS011;75480;52.260;20.916;2024-03-23T06:06:04;35.97;;;18.77;;
85121;SDS011;75480;52.260;20.916;2024-03-23T06:07:40;31.38;;;19.20;;
85121;SDS011;75480;52.260;20.916;2024-03-23T06:09:11;35.80;;;18.73;;
85121;SDS011;75480;52.260;20.916;2024-03-23T06:10:41;31.42;;;17.98;;
85121;SDS011;75480;52.260;20.916;2024-03-23T06:12:12;34.95;;;19.17;;
85121;SDS011;75480;52.260;20.916;2024-03-23T06:13:43;30.83;;;18.60;;
85121;SDS011;75480;52.260;20.916;2024-03-23T06:15:13;34.80;;;19.75;;
85121;SDS011;75480;52.260;20.916;2024-03-23T06:16:44;32.35;;;18.40;;
85121;SDS011;75480;52.260;20.916;2024-03-23T06:18:15;34.97;;;19.92;;
85121;SDS011;75480;52.260;20.916;2024-03-23T06:19:45;36.67;;;19.67;;
85121;SDS011;75480;52.260;20.916;2024-03-23T06:21:17;36.00;;;19.42;;
85121;SDS011;75480;52.260;20.916;2024-03-23T06:22:47;32.42;;;18.33;;
85121;SDS011;75480;52.260;20.916;2024-03-23T06:24:18;30.98;;;17.75;;
85121;SDS011;75480;52.260;20.916;2024-03-23T06:25:49;35.97;;;19.13;;
85121;SDS011;75480;52.260;20.916;2024-03-23T06:27:20;33.35;;;19.20;;
85121;SDS011;75480;52.260;20.916;2024-03-23T06:28:50;35.47;;;18.73;;
85121;SDS011;75480;52.260;20.916;2024-03-23T06:30:21;33.90;;;20.30;;
85121;SDS011;75480;52.260;20.916;2024-03-23T06:31:55;32.90;;;18.77;;
85121;SDS011;75480;52.260;20.916;2024-03-23T06:33:25;30.73;;;17.65;;
85121;SDS011;75480;52.260;20.916;2024-03-23T06:34:56;32.63;;;18.17;;
85121;SDS011;75480;52.260;20.916;2024-03-23T06:36:27;31.80;;;17.92;;
85121;SDS011;75480;52.260;20.916;2024-03-23T06:37:57;27.55;;;16.30;;
85121;SDS011;75480;52.260;20.916;2024-03-23T06:39:31;30.13;;;17.33;;
85121;SDS011;75480;52.260;20.916;2024-03-23T06:41:04;31.80;;;18.52;;
85121;SDS011;75480;52.260;20.916;2024-03-23T06:42:35;31.45;;;17.60;;
85121;SDS011;75480;52.260;20.916;2024-03-23T06:44:07;30.17;;;17.88;;
85121;SDS011;75480;52.260;20.916;2024-03-23T06:45:37;33.10;;;18.00;;
85121;SDS011;75480;52.260;20.916;2024-03-23T06:47:08;32.75;;;18.10;;
85121;SDS011;75480;52.260;20.916;2024-03-23T06:48:38;33.05;;;18.27;;
85121;SDS011;75480;52.260;20.916;2024-03-23T06:50:09;29.70;;;16.42;;
85121;SDS011;75480;52.260;20.916;2024-03-23T06:51:40;33.25;;;17.60;;
85121;SDS011;75480;52.260;20.916;2024-03-23T06:53:11;31.42;;;18.35;;
85121;SDS011;75480;52.260;20.916;2024-03-23T06:54:43;28.88;;;17.08;;
85121;SDS011;75480;52.260;20.916;2024-03-23T06:56:17;32.92;;;18.17;;
85121;SDS011;75480;52.260;20.916;2024-03-23T06:57:47;30.83;;;17.80;;
85121;SDS011;75480;52.260;20.916;2024-03-23T06:59:18;30.65;;;18.25;;
85121;SDS011;75480;52.260;20.916;2024-03-23T07:00:49;31.45;;;18.58;;
85121;SDS011;75480;52.260;20.916;2024-03-23T07:02:19;31.75;;;18.40;;
85121;SDS011;75480;52.260;20.916;2024-03-23T07:03:50;31.75;;;18.48;;
85121;SDS011;75480;52.260;20.916;2024-03-23T07:05:21;30.20;;;18.98;;
85121;SDS011;75480;52.260;20.916;2024-03-23T07:06:51;35.20;;;18.40;;
85121;SDS011;75480;52.260;20.916;2024-03-23T07:08:22;33.35;;;18.48;;
85121;SDS011;75480;52.260;20.916;2024-03-23T07:09:53;32.88;;;18.80;;
85121;SDS011;75480;52.260;20.916;2024-03-23T07:11:23;28.63;;;16.30;;
85121;SDS011;75480;52.260;20.916;2024-03-23T07:12:54;33.45;;;18.27;;
85121;SDS011;75480;52.260;20.916;2024-03-23T07:14:25;32.55;;;18.00;;
85121;SDS011;75480;52.260;20.916;2024-03-23T07:15:56;30.65;;;16.42;;
85121;SDS011;75480;52.260;20.916;2024-03-23T07:17:27;28.92;;;17.33;;
85121;SDS011;75480;52.260;20.916;2024-03-23T07:18:58;31.73;;;16.65;;
85121;SDS011;75480;52.260;20.916;2024-03-23T07:20:28;31.08;;;17.50;;
85121;SDS011;75480;52.260;20.916;2024-03-23T07:22:01;34.25;;;17.38;;
85121;SDS011;75480;52.260;20.916;2024-03-23T07:23:32;29.20;;;16.90;;
85121;SDS011;75480;52.260;20.916;2024-03-23T07:25:04;30.13;;;17.42;;
85121;SDS011;75480;52.260;20.916;2024-03-23T07:26:36;30.13;;;16.38;;
85121;SDS011;75480;52.260;20.916;2024-03-23T07:28:07;29.10;;;16.90;;
85121;SDS011;75480;52.260;20.916;2024-03-23T07:29:38;27.77;;;15.57;;
85121;SDS011;75480;52.260;20.916;2024-03-23T07:31:12;29.58;;;16.65;;
85121;SDS011;75480;52.260;20.916;2024-03-23T07:32:44;27.02;;;14.93;;
85121;SDS011;75480;52.260;20.916;2024-03-23T07:34:15;26.70;;;14.70;;
85121;SDS011;75480;52.260;20.916;2024-03-23T07:35:46;26.05;;;15.23;;
85121;SDS011;75480;52.260;20.916;2024-03-23T07:37:16;28.15;;;14.70;;
85121;SDS011;75480;52.260;20.916;2024-03-23T07:38:47;26.67;;;15.48;;
85121;SDS011;75480;52.260;20.916;2024-03-23T07:40:18;27.10;;;15.30;;
85121;SDS011;75480;52.260;20.916;2024-03-23T07:41:48;25.95;;;14.73;;
85121;SDS011;75480;52.260;20.916;2024-03-23T07:43:19;25.77;;;14.30;;
85121;SDS011;75480;52.260;20.916;2024-03-23T07:44:49;26.15;;;14.63;;
85121;SDS011;75480;52.260;20.916;2024-03-23T07:46:20;27.23;;;15.27;;
85121;SDS011;75480;52.260;20.916;2024-03-23T07:47:51;27.88;;;16.23;;
85121;SDS011;75480;52.260;20.916;2024-03-23T07:49:22;26.40;;;15.65;;
85121;SDS011;75480;52.260;20.916;2024-03-23T07:51:02;28.25;;;15.00;;
85121;SDS011;75480;52.260;20.916;2024-03-23T07:52:33;25.45;;;14.57;;
85121;SDS011;75480;52.260;20.916;2024-03-23T07:54:04;29.90;;;14.43;;
85121;SDS011;75480;52.260;20.916;2024-03-23T07:55:34;26.35;;;14.57;;
85121;SDS011;75480;52.260;20.916;2024-03-23T07:57:05;25.90;;;14.90;;
85121;SDS011;75480;52.260;20.916;2024-03-23T07:58:37;23.80;;;14.20;;
85121;SDS011;75480;52.260;20.916;2024-03-23T08:00:07;28.15;;;14.35;;
85121;SDS011;75480;52.260;20.916;2024-03-23T08:01:38;26.50;;;14.23;;
85121;SDS011;75480;52.260;20.916;2024-03-23T08:03:09;25.30;;;14.40;;
85121;SDS011;75480;52.260;20.916;2024-03-23T08:04:40;25.60;;;14.88;;
85121;SDS011;75480;52.260;20.916;2024-03-23T08:06:14;25.60;;;14.32;;
85121;SDS011;75480;52.260;20.916;2024-03-23T08:07:49;24.27;;;13.98;;
85121;SDS011;75480;52.260;20.916;2024-03-23T08:09:20;23.85;;;14.27;;
85121;SDS011;75480;52.260;20.916;2024-03-23T08:10:51;29.17;;;14.23;;
85121;SDS011;75480;52.260;20.916;2024-03-23T08:12:22;23.17;;;13.52;;
85121;SDS011;75480;52.260;20.916;2024-03-23T08:13:53;22.50;;;12.73;;
85121;SDS011;75480;52.260;20.916;2024-03-23T08:15:24;25.48;;;13.35;;
85121;SDS011;75480;52.260;20.916;2024-03-23T08:16:54;26.80;;;14.45;;
85121;SDS011;75480;52.260;20.916;2024-03-23T08:18:25;21.40;;;12.90;;
85121;SDS011;75480;52.260;20.916;2024-03-23T08:19:56;25.23;;;14.07;;
85121;SDS011;75480;52.260;20.916;2024-03-23T08:21:27;24.13;;;13.65;;
85121;SDS011;75480;52.260;20.916;2024-03-23T08:22:57;25.83;;;14.80;;
85121;SDS011;75480;52.260;20.916;2024-03-23T08:24:28;25.75;;;14.52;;
85121;SDS011;75480;52.260;20.916;2024-03-23T08:25:59;26.17;;;15.02;;
85121;SDS011;75480;52.260;20.916;2024-03-23T08:29:01;23.48;;;13.85;;
85121;SDS011;75480;52.260;20.916;2024-03-23T08:30:34;29.38;;;14.75;;
85121;SDS011;75480;52.260;20.916;2024-03-23T08:32:05;25.65;;;13.40;;
85121;SDS011;75480;52.260;20.916;2024-03-23T08:33:36;21.77;;;13.60;;
85121;SDS011;75480;52.260;20.916;2024-03-23T08:35:07;22.30;;;13.50;;
85121;SDS011;75480;52.260;20.916;2024-03-23T08:36:38;25.85;;;14.25;;
85121;SDS011;75480;52.260;20.916;2024-03-23T08:38:09;26.10;;;14.20;;
85121;SDS011;75480;52.260;20.916;2024-03-23T08:39:39;22.60;;;13.05;;
85121;SDS011;75480;52.260;20.916;2024-03-23T08:41:11;24.15;;;13.80;;
85121;SDS011;75480;52.260;20.916;2024-03-23T08:42:41;23.42;;;12.73;;
85121;SDS011;75480;52.260;20.916;2024-03-23T08:44:12;21.70;;;12.63;;
85121;SDS011;75480;52.260;20.916;2024-03-23T08:45:43;19.45;;;12.43;;
85121;SDS011;75480;52.260;20.916;2024-03-23T08:47:13;23.10;;;13.50;;
85121;SDS011;75480;52.260;20.916;2024-03-23T08:48:45;21.08;;;12.20;;
85121;SDS011;75480;52.260;20.916;2024-03-23T08:50:18;21.10;;;13.20;;
85121;SDS011;75480;52.260;20.916;2024-03-23T08:51:49;22.70;;;12.43;;
85121;SDS011;75480;52.260;20.916;2024-03-23T08:54:51;21.73;;;12.27;;
85121;SDS011;75480;52.260;20.916;2024-03-23T08:56:22;21.02;;;12.48;;
85121;SDS011;75480;52.260;20.916;2024-03-23T08:57:53;18.70;;;11.77;;
85121;SDS011;75480;52.260;20.916;2024-03-23T08:59:24;20.67;;;13.40;;
85121;SDS011;75480;52.260;20.916;2024-03-23T09:00:55;21.75;;;13.07;;
85121;SDS011;75480;52.260;20.916;2024-03-23T09:02:27;18.85;;;12.48;;
85121;SDS011;75480;52.260;20.916;2024-03-23T09:03:57;22.65;;;13.52;;
85121;SDS011;75480;52.260;20.916;2024-03-23T09:05:28;18.90;;;11.65;;
85121;SDS011;75480;52.260;20.916;2024-03-23T09:07:01;19.65;;;12.10;;
85121;SDS011;75480;52.260;20.916;2024-03-23T09:08:31;18.60;;;11.25;;
85121;SDS011;75480;52.260;20.916;2024-03-23T09:10:02;20.48;;;12.60;;
85121;SDS011;75480;52.260;20.916;2024-03-23T09:11:33;19.42;;;11.90;;
85121;SDS011;75480;52.260;20.916;2024-03-23T09:13:04;19.15;;;11.88;;
85121;SDS011;75480;52.260;20.916;2024-03-23T09:14:34;19.25;;;12.20;;
85121;SDS011;75480;52.260;20.916;2024-03-23T09:16:05;19.38;;;11.85;;
85121;SDS011;75480;52.260;20.916;2024-03-23T09:17:36;17.30;;;11.55;;
85121;SDS011;75480;52.260;20.916;2024-03-23T09:19:07;23.92;;;12.27;;
85121;SDS011;75480;52.260;20.916;2024-03-23T09:20:38;18.48;;;12.02;;
85121;SDS011;75480;52.260;20.916;2024-03-23T09:22:08;19.33;;;11.00;;
85121;SDS011;75480;52.260;20.916;2024-03-23T09:23:39;19.83;;;12.23;;
85121;SDS011;75480;52.260;20.916;2024-03-23T09:25:10;20.20;;;11.23;;
85121;SDS011;75480;52.260;20.916;2024-03-23T09:26:40;18.42;;;11.27;;
85121;SDS011;75480;52.260;20.916;2024-03-23T09:28:11;20.15;;;11.10;;
85121;SDS011;75480;52.260;20.916;2024-03-23T09:29:42;19.00;;;11.05;;
85121;SDS011;75480;52.260;20.916;2024-03-23T09:31:12;19.63;;;12.10;;
85121;SDS011;75480;52.260;20.916;2024-03-23T09:32:45;18.42;;;10.13;;
85121;SDS011;75480;52.260;20.916;2024-03-23T09:34:16;14.73;;;10.32;;
85121;SDS011;75480;52.260;20.916;2024-03-23T09:35:47;16.40;;;10.70;;
85121;SDS011;75480;52.260;20.916;2024-03-23T09:37:17;17.80;;;10.13;;
85121;SDS011;75480;52.260;20.916;2024-03-23T09:38:48;16.38;;;10.50;;
85121;SDS011;75480;52.260;20.916;2024-03-23T09:40:19;15.23;;;9.55;;
85121;SDS011;75480;52.260;20.916;2024-03-23T09:41:50;16.48;;;10.52;;
85121;SDS011;75480;52.260;20.916;2024-03-23T09:43:21;15.07;;;10.07;;